createdAt,value
2023-04-15T00:00:19.149Z,18.72
2023-04-15T00:03:23.806Z,18.71
2023-04-15T00:06:26.684Z,18.77
2023-04-15T00:09:29.787Z,18.68
2023-04-15T00:12:32.568Z,18.69
2023-04-15T00:15:35.330Z,18.71
2023-04-15T00:18:39.575Z,18.71
2023-04-15T00:21:42.316Z,18.65
2023-04-15T00:24:45.135Z,18.67
2023-04-15T00:27:47.913Z,18.68
2023-04-15T00:30:51.359Z,18.66
2023-04-15T00:33:55.488Z,18.58
2023-04-15T00:36:58.600Z,18.62
2023-04-15T00:40:01.433Z,18.65
2023-04-15T00:43:04.353Z,18.70
2023-04-15T00:46:07.606Z,18.60
2023-04-15T00:49:11.946Z,18.60
2023-04-15T00:52:14.727Z,18.56
2023-04-15T00:55:17.545Z,18.60
2023-04-15T00:58:20.337Z,18.53
2023-04-15T01:01:23.439Z,18.56
2023-04-15T01:04:27.984Z,18.55
2023-04-15T01:07:31.010Z,18.59
2023-04-15T01:10:34.421Z,18.55
2023-04-15T01:13:38.098Z,18.55
2023-04-15T01:16:41.216Z,18.64
2023-04-15T01:19:45.373Z,18.48
2023-04-15T01:22:48.212Z,18.52
2023-04-15T01:25:52.806Z,18.49
2023-04-15T01:28:56.523Z,18.47
2023-04-15T01:31:59.419Z,18.44
2023-04-15T01:35:02.303Z,18.75
2023-04-15T01:38:06.503Z,18.76
2023-04-15T01:41:10.753Z,18.73
2023-04-15T01:44:13.536Z,18.77
2023-04-15T01:47:16.359Z,18.73
2023-04-15T01:50:20.493Z,18.73
2023-04-15T01:53:23.424Z,18.69
2023-04-15T01:56:27.699Z,18.68
2023-04-15T01:59:31.403Z,18.68
2023-04-15T02:02:34.641Z,18.66
2023-04-15T02:05:37.462Z,18.68
2023-04-15T02:08:40.324Z,18.63
2023-04-15T02:11:44.420Z,18.61
2023-04-15T02:14:47.298Z,18.63
2023-04-15T02:17:51.216Z,18.65
2023-04-15T02:20:54.096Z,18.66
2023-04-15T02:23:57.346Z,18.65
2023-04-15T02:27:01.884Z,18.67
2023-04-15T02:30:04.807Z,18.65
2023-04-15T02:33:07.960Z,18.62
2023-04-15T02:36:12.535Z,18.66
2023-04-15T02:39:16.963Z,18.63
2023-04-15T02:42:21.751Z,18.61
2023-04-15T02:45:27.626Z,18.61
2023-04-15T02:48:30.467Z,18.58
2023-04-15T02:51:33.208Z,18.61
2023-04-15T02:54:36.073Z,18.60
2023-04-15T02:57:41.248Z,18.59
2023-04-15T03:00:44.149Z,18.55
2023-04-15T03:03:47.061Z,18.54
2023-04-15T03:06:49.890Z,18.58
2023-04-15T03:09:52.701Z,18.56
2023-04-15T03:12:56.856Z,18.54
2023-04-15T03:15:59.579Z,18.52
2023-04-15T03:19:02.613Z,18.52
2023-04-15T03:22:05.681Z,18.49
2023-04-15T03:25:08.651Z,18.49
2023-04-15T03:28:13.382Z,18.51
2023-04-15T03:31:16.221Z,18.55
2023-04-15T03:34:19.118Z,18.54
2023-04-15T03:37:21.850Z,18.55
2023-04-15T03:40:24.658Z,18.53
2023-04-15T03:43:28.798Z,18.52
2023-04-15T03:46:31.588Z,18.56
2023-04-15T03:49:34.379Z,18.53
2023-04-15T03:52:37.094Z,18.54
2023-04-15T03:55:40.094Z,18.49
2023-04-15T03:58:44.254Z,18.49
2023-04-15T04:01:47.169Z,18.50
2023-04-15T04:04:50.052Z,18.51
2023-04-15T04:07:52.836Z,18.50
2023-04-15T04:10:55.572Z,18.49
2023-04-15T04:13:59.735Z,18.50
2023-04-15T04:17:02.522Z,18.47
2023-04-15T04:20:05.805Z,18.44
2023-04-15T04:23:08.570Z,18.42
2023-04-15T04:26:11.362Z,18.44
2023-04-15T04:29:15.699Z,18.46
2023-04-15T04:32:18.494Z,18.43
2023-04-15T04:35:21.978Z,18.42
2023-04-15T04:38:24.815Z,18.42
2023-04-15T04:41:27.650Z,18.45
2023-04-15T04:44:31.770Z,18.44
2023-04-15T04:47:34.595Z,18.44
2023-04-15T04:50:37.780Z,18.45
2023-04-15T04:53:40.818Z,18.48
2023-04-15T04:56:43.616Z,18.47
2023-04-15T04:59:47.801Z,18.43
2023-04-15T05:02:50.707Z,18.45
2023-04-15T05:05:53.549Z,18.44
2023-04-15T05:08:56.812Z,18.42
2023-04-15T05:11:59.586Z,18.42
2023-04-15T05:15:03.783Z,18.42
2023-04-15T05:18:06.654Z,18.43
2023-04-15T05:21:09.453Z,18.44
2023-04-15T05:24:12.146Z,18.44
2023-04-15T05:27:14.880Z,18.43
2023-04-15T05:30:19.122Z,18.39
2023-04-15T05:33:21.917Z,18.35
2023-04-15T05:36:24.711Z,18.36
2023-04-15T05:39:27.770Z,18.38
2023-04-15T05:42:30.585Z,18.38
2023-04-15T05:45:34.710Z,18.40
2023-04-15T05:48:37.437Z,18.40
2023-04-15T05:51:40.254Z,18.40
2023-04-15T05:54:43.032Z,18.41
2023-04-15T05:57:45.780Z,18.40
2023-04-15T06:00:50.048Z,18.37
2023-04-15T06:03:52.968Z,18.41
2023-04-15T06:06:56.235Z,18.43
2023-04-15T06:09:59.061Z,18.41
2023-04-15T06:13:01.836Z,18.35
2023-04-15T06:16:06.304Z,18.37
2023-04-15T06:19:09.093Z,18.42
2023-04-15T06:22:11.920Z,18.36
2023-04-15T06:25:14.861Z,18.35
2023-04-15T06:28:17.635Z,18.38
2023-04-15T06:31:21.920Z,18.43
2023-04-15T06:34:24.707Z,18.43
2023-04-15T06:37:27.431Z,18.42
2023-04-15T06:40:30.279Z,18.38
2023-04-15T06:43:33.095Z,18.37
2023-04-15T06:46:37.186Z,18.35
2023-04-15T06:49:40.589Z,18.38
2023-04-15T06:52:43.391Z,18.34
2023-04-15T06:55:46.121Z,18.35
2023-04-15T06:58:48.927Z,18.32
2023-04-15T07:01:53.145Z,18.37
2023-04-15T07:04:57.079Z,18.34
2023-04-15T07:08:00.216Z,18.33
2023-04-15T07:11:03.170Z,18.37
2023-04-15T07:14:06.783Z,18.32
2023-04-15T07:17:12.095Z,18.32
2023-04-15T07:20:14.847Z,18.35
2023-04-15T07:23:17.685Z,18.35
2023-04-15T07:26:20.470Z,18.35
2023-04-15T07:29:23.268Z,18.33
2023-04-15T07:32:27.446Z,18.35
2023-04-15T07:35:30.253Z,18.37
2023-04-15T07:38:32.996Z,18.40
2023-04-15T07:41:35.979Z,18.35
2023-04-15T07:44:38.763Z,18.34
2023-04-15T07:47:43.127Z,18.37
2023-04-15T07:50:46.031Z,18.33
2023-04-15T07:53:48.813Z,18.29
2023-04-15T07:56:51.613Z,18.30
2023-04-15T07:59:54.381Z,18.33
2023-04-15T08:02:59.789Z,18.38
2023-04-15T08:06:02.724Z,18.35
2023-04-15T08:09:05.554Z,18.33
2023-04-15T08:12:12.516Z,18.35
2023-04-15T08:15:15.294Z,18.30
2023-04-15T08:18:19.545Z,18.28
2023-04-15T08:21:22.803Z,18.44
2023-04-15T08:24:26.358Z,18.38
2023-04-15T08:27:29.079Z,18.37
2023-04-15T08:30:31.889Z,18.38
2023-04-15T08:33:36.125Z,18.43
2023-04-15T08:36:38.903Z,18.45
2023-04-15T08:39:41.679Z,18.45
2023-04-15T08:42:45.721Z,18.50
2023-04-15T08:45:51.815Z,18.50
2023-04-15T08:48:57.687Z,18.55
2023-04-15T08:52:01.621Z,18.46
2023-04-15T08:55:04.998Z,18.47
2023-04-15T08:58:07.964Z,18.47
2023-04-15T09:01:11.483Z,18.47
2023-04-15T09:04:15.745Z,18.49
2023-04-15T09:07:18.714Z,18.51
2023-04-15T09:10:21.497Z,18.51
2023-04-15T09:13:24.340Z,18.48
2023-04-15T09:16:27.513Z,18.50
2023-04-15T09:19:36.276Z,18.54
2023-04-15T09:22:39.480Z,18.50
2023-04-15T09:25:43.347Z,18.57
2023-04-15T09:28:46.180Z,18.61
2023-04-15T09:31:49.069Z,18.59
2023-04-15T09:34:53.206Z,18.61
2023-04-15T09:38:03.134Z,18.61
2023-04-15T09:41:18.574Z,18.63
2023-04-15T09:44:24.353Z,18.63
2023-04-15T09:47:30.331Z,18.66
2023-04-15T09:50:41.732Z,18.69
2023-04-15T09:53:44.460Z,18.63
2023-04-15T09:56:47.266Z,18.60
2023-04-15T09:59:50.089Z,18.60
2023-04-15T10:02:53.306Z,18.67
2023-04-15T10:05:58.522Z,18.57
2023-04-15T10:09:01.848Z,18.79
2023-04-15T10:12:05.465Z,18.67
2023-04-15T10:15:13.175Z,18.68
2023-04-15T10:18:17.687Z,18.63
2023-04-15T10:21:24.850Z,18.59
2023-04-15T10:24:28.399Z,18.65
2023-04-15T10:27:31.524Z,18.68
2023-04-15T10:30:34.417Z,18.66
2023-04-15T10:33:38.902Z,18.72
2023-04-15T10:36:43.083Z,18.75
2023-04-15T10:39:45.949Z,18.74
2023-04-15T10:42:48.858Z,18.72
2023-04-15T10:45:51.628Z,18.76
2023-04-15T10:48:55.104Z,18.73
2023-04-15T10:52:01.052Z,18.73
2023-04-15T10:55:04.572Z,18.65
2023-04-15T10:58:07.855Z,18.73
2023-04-15T11:01:10.761Z,18.73
2023-04-15T11:04:13.676Z,18.70
2023-04-15T11:07:34.188Z,18.71
2023-04-15T11:10:52.117Z,18.63
2023-04-15T11:13:54.847Z,18.67
2023-04-15T11:16:57.682Z,18.68
2023-04-15T11:20:00.748Z,18.70
2023-04-15T11:23:13.833Z,18.69
2023-04-15T11:26:18.429Z,18.68
2023-04-15T11:29:21.420Z,18.69
2023-04-15T11:32:24.250Z,18.79
2023-04-15T11:35:27.171Z,18.72
2023-04-15T11:38:31.468Z,18.67
2023-04-15T11:41:34.280Z,18.66
2023-04-15T11:44:37.102Z,18.68
2023-04-15T11:47:40.353Z,18.66
2023-04-15T11:50:43.193Z,18.70
2023-04-15T11:53:48.488Z,18.66
2023-04-15T11:56:51.977Z,18.67
2023-04-15T11:59:56.383Z,18.72
2023-04-15T12:03:13.223Z,18.68
2023-04-15T12:06:17.994Z,18.68
2023-04-15T12:09:22.425Z,18.74
2023-04-15T12:12:28.330Z,18.79
2023-04-15T12:15:31.127Z,18.75
2023-04-15T12:18:33.932Z,18.69
2023-04-15T12:21:38.093Z,18.68
2023-04-15T12:24:44.042Z,18.70
2023-04-15T12:27:52.733Z,18.73
2023-04-15T12:30:55.584Z,18.71
2023-04-15T12:33:58.729Z,18.69
2023-04-15T12:37:02.422Z,18.71
2023-04-15T12:40:09.590Z,18.72
2023-04-15T12:43:12.552Z,18.69
2023-04-15T12:46:15.895Z,18.84
2023-04-15T12:49:20.929Z,18.71
2023-04-15T12:52:24.568Z,18.75
2023-04-15T12:55:28.858Z,18.74
2023-04-15T12:58:31.700Z,18.74
2023-04-15T13:01:34.506Z,18.76
2023-04-15T13:04:37.300Z,18.72
2023-04-15T13:07:40.234Z,18.74
2023-04-15T13:10:44.705Z,18.74
2023-04-15T13:13:47.656Z,18.94
2023-04-15T13:16:50.606Z,18.80
2023-04-15T13:19:53.347Z,18.74
2023-04-15T13:22:56.285Z,18.89
2023-04-15T13:26:00.412Z,18.69
2023-04-15T13:29:03.243Z,18.64
2023-04-15T13:32:06.542Z,18.74
2023-04-15T13:35:09.887Z,18.78
2023-04-15T13:38:12.634Z,18.73
2023-04-15T13:41:16.855Z,18.80
2023-04-15T13:44:20.949Z,18.81
2023-04-15T13:47:24.931Z,18.82
2023-04-15T13:50:27.769Z,18.81
2023-04-15T13:53:38.175Z,18.80
2023-04-15T13:56:43.465Z,18.83
2023-04-15T13:59:46.302Z,18.86
2023-04-15T14:02:49.496Z,18.78
2023-04-15T14:05:56.014Z,18.75
2023-04-15T14:08:58.894Z,18.81
2023-04-15T14:12:03.123Z,18.76
2023-04-15T14:15:06.461Z,18.71
2023-04-15T14:18:10.011Z,18.69
2023-04-15T14:21:13.024Z,18.71
2023-04-15T14:24:15.876Z,18.68
2023-04-15T14:27:20.009Z,18.66
2023-04-15T14:30:22.873Z,18.65
2023-04-15T14:33:25.668Z,18.66
2023-04-15T14:36:28.510Z,18.66
2023-04-15T14:39:31.313Z,18.70
2023-04-15T14:42:36.881Z,18.67
2023-04-15T14:45:43.590Z,18.68
2023-04-15T14:48:49.583Z,18.67
2023-04-15T14:51:53.837Z,18.67
2023-04-15T14:54:56.719Z,18.67
2023-04-15T14:58:03.292Z,18.71
2023-04-15T15:01:07.460Z,18.75
2023-04-15T15:04:12.981Z,18.72
2023-04-15T15:07:17.401Z,18.80
2023-04-15T15:10:30.267Z,18.73
2023-04-15T15:13:42.573Z,18.79
2023-04-15T15:16:45.460Z,18.75
2023-04-15T15:19:49.744Z,18.69
2023-04-15T15:22:53.945Z,18.67
2023-04-15T15:25:58.071Z,18.69
2023-04-15T15:29:04.007Z,18.67
2023-04-15T15:32:08.481Z,18.66
2023-04-15T15:35:12.721Z,18.67
2023-04-15T15:38:17.018Z,18.61
2023-04-15T15:41:22.076Z,18.63
2023-04-15T15:44:28.034Z,18.65
2023-04-15T15:47:32.764Z,18.68
2023-04-15T15:50:38.387Z,18.69
2023-04-15T15:53:43.005Z,18.73
2023-04-15T15:56:48.588Z,18.77
2023-04-15T16:00:04.826Z,18.80
2023-04-15T16:03:13.061Z,18.77
2023-04-15T16:06:15.892Z,18.76
2023-04-15T16:09:18.720Z,18.88
2023-04-15T16:12:21.648Z,18.81
2023-04-15T16:15:26.499Z,18.96
2023-04-15T16:18:30.306Z,18.91
2023-04-15T16:21:33.754Z,18.92
2023-04-15T16:24:36.632Z,18.91
2023-04-15T16:30:47.136Z,18.92
2023-04-15T16:33:50.010Z,18.94
2023-04-15T16:36:52.730Z,18.93
2023-04-15T16:39:55.658Z,18.95
2023-04-15T16:42:58.399Z,18.94
2023-04-15T16:46:02.629Z,18.92
2023-04-15T16:49:06.714Z,18.91
2023-04-15T16:52:09.652Z,18.93
2023-04-15T16:55:12.442Z,18.90
2023-04-15T16:58:15.326Z,18.90
2023-04-15T17:01:19.537Z,18.92
2023-04-15T17:04:22.411Z,18.89
2023-04-15T17:07:25.232Z,18.88
2023-04-15T17:10:28.259Z,18.91
2023-04-15T17:13:31.762Z,18.92
2023-04-15T17:16:36.055Z,18.93
2023-04-15T17:19:38.874Z,18.93
2023-04-15T17:22:41.707Z,18.91
2023-04-15T17:25:44.522Z,18.89
2023-04-15T17:28:47.319Z,18.92
2023-04-15T17:31:51.454Z,18.94
2023-04-15T17:34:54.245Z,18.95
2023-04-15T17:37:57.096Z,18.51
2023-04-15T17:41:00.161Z,18.41
2023-04-15T17:44:03.094Z,18.44
2023-04-15T17:47:08.242Z,18.42
2023-04-15T17:50:11.537Z,18.50
2023-04-15T17:53:14.330Z,18.50
2023-04-15T17:56:17.384Z,18.46
2023-04-15T17:59:20.250Z,18.56
2023-04-15T18:02:24.680Z,18.58
2023-04-15T18:05:27.606Z,18.58
2023-04-15T18:08:30.415Z,18.55
2023-04-15T18:11:34.343Z,18.61
2023-04-15T18:14:37.212Z,18.62
2023-04-15T18:17:41.316Z,18.63
2023-04-15T18:20:44.196Z,18.67
2023-04-15T18:23:47.233Z,18.60
2023-04-15T18:26:50.307Z,18.66
2023-04-15T18:29:53.112Z,18.76
2023-04-15T18:32:57.688Z,18.56
2023-04-15T18:36:02.524Z,18.54
2023-04-15T18:39:06.595Z,18.59
2023-04-15T18:42:09.841Z,18.55
2023-04-15T18:45:12.779Z,18.54
2023-04-15T18:48:18.320Z,18.51
2023-04-15T18:51:22.210Z,18.50
2023-04-15T18:54:25.061Z,18.53
2023-04-15T18:57:33.227Z,18.53
2023-04-15T19:00:41.702Z,18.52
2023-04-15T19:03:46.028Z,18.52
2023-04-15T19:06:48.840Z,18.52
2023-04-15T19:09:51.666Z,18.55
2023-04-15T19:12:54.456Z,18.52
2023-04-15T19:15:57.245Z,18.52
2023-04-15T19:19:01.465Z,18.54
2023-04-15T19:22:04.251Z,18.59
2023-04-15T19:25:07.438Z,18.57
2023-04-15T19:28:10.205Z,18.57
2023-04-15T19:31:12.960Z,18.57
2023-04-15T19:34:17.120Z,18.55
2023-04-15T19:37:19.914Z,18.55
2023-04-15T19:40:22.622Z,18.52
2023-04-15T19:43:25.461Z,18.55
2023-04-15T19:46:28.304Z,18.50
2023-04-15T19:49:32.666Z,18.47
2023-04-15T19:52:35.448Z,18.48
2023-04-15T19:55:38.266Z,18.51
2023-04-15T19:58:41.008Z,18.51
2023-04-15T20:01:43.797Z,18.51
2023-04-15T20:04:47.955Z,18.52
2023-04-15T20:07:53.101Z,18.49
2023-04-15T20:10:55.838Z,18.49
2023-04-15T20:13:58.959Z,18.57
2023-04-15T20:17:02.014Z,18.55
2023-04-15T20:20:07.138Z,18.55
2023-04-15T20:23:09.965Z,18.55
2023-04-15T20:26:12.699Z,18.54
2023-04-15T20:29:16.468Z,18.52
2023-04-15T20:32:19.316Z,18.59
2023-04-15T20:35:23.529Z,18.59
2023-04-15T20:38:26.367Z,18.57
2023-04-15T20:41:31.987Z,18.64
2023-04-15T20:44:35.616Z,18.71
2023-04-15T20:47:38.430Z,18.60
2023-04-15T20:50:42.596Z,18.57
2023-04-15T20:53:45.377Z,18.54
2023-04-15T20:56:48.210Z,18.60
2023-04-15T20:59:51.110Z,18.71
2023-04-15T21:02:54.015Z,18.54
2023-04-15T21:05:58.278Z,18.50
2023-04-15T21:09:01.215Z,18.52
2023-04-15T21:12:04.037Z,18.49
2023-04-15T21:15:07.281Z,18.51
2023-04-15T21:18:10.159Z,18.49
2023-04-15T21:21:14.322Z,18.51
2023-04-15T21:24:17.187Z,18.48
2023-04-15T21:27:20.181Z,18.46
2023-04-15T21:30:23.794Z,18.49
2023-04-15T21:33:27.211Z,18.46
2023-04-15T21:36:31.779Z,18.47
2023-04-15T21:39:34.587Z,18.50
2023-04-15T21:42:37.347Z,18.49
2023-04-15T21:45:40.497Z,18.48
2023-04-15T21:48:43.353Z,18.48
2023-04-15T21:51:48.070Z,18.47
2023-04-15T21:54:50.884Z,18.51
2023-04-15T21:57:53.617Z,18.52
2023-04-15T22:01:00.155Z,18.41
2023-04-15T22:04:03.115Z,18.42
2023-04-15T22:07:08.375Z,18.44
2023-04-15T22:10:11.486Z,18.45
2023-04-15T22:13:14.404Z,18.43
2023-04-15T22:16:17.245Z,18.44
2023-04-15T22:19:20.017Z,18.42
2023-04-15T22:22:27.073Z,18.42
2023-04-15T22:25:40.592Z,18.40
2023-04-15T22:28:43.543Z,18.42
2023-04-15T22:31:46.526Z,18.40
2023-04-15T22:34:49.388Z,18.39
2023-04-15T22:37:53.626Z,18.41
2023-04-15T22:40:56.422Z,18.42
2023-04-15T22:43:59.267Z,18.41
2023-04-15T22:47:01.981Z,18.53
2023-04-15T22:50:04.907Z,18.45
2023-04-15T22:53:09.047Z,18.45
2023-04-15T22:56:11.801Z,18.45
2023-04-15T22:59:14.584Z,18.47
2023-04-15T23:02:17.570Z,18.47
2023-04-15T23:05:20.702Z,18.46
2023-04-15T23:08:25.013Z,18.37
2023-04-15T23:11:27.848Z,18.34
2023-04-15T23:14:30.686Z,18.47
2023-04-15T23:17:34.914Z,18.40
2023-04-15T23:20:37.793Z,18.37
2023-04-15T23:23:42.086Z,18.34
2023-04-15T23:26:44.881Z,18.29
2023-04-15T23:29:47.673Z,18.31
2023-04-15T23:32:50.503Z,18.34
2023-04-15T23:35:53.392Z,18.33
2023-04-15T23:38:57.535Z,18.33
2023-04-15T23:42:00.311Z,18.33
2023-04-15T23:45:03.132Z,18.35
2023-04-15T23:48:06.369Z,18.38
2023-04-15T23:51:09.114Z,18.35
2023-04-15T23:54:13.297Z,18.36
2023-04-15T23:57:16.112Z,18.35
